Pagina principale
METAR-TAF:

METAR-TAF

Aeroporti :

Aeroporto di Tunisi-Cartagine

Tunisi, Tunisia

latitudine: 36-50N, longitudine: 010-14E, altezza: 3 m

Osservazione

Il bollettino è stato emesso 38 minuti fa, alle 02:30 UTC
Vento 5 kt da sud
Temperature 9°C
Umidità 100%
Pressione 1023 hPa
Visibilità: 5000 m
Poco nuvoloso ad un'altezza di 2600 ft

METAR: DTTA 250230Z 17005KT 5000 FEW026 09/09 Q1023

Ora: 04:08 (03:08 UTC)

Previsione

Il bollettino è stato emesso 4 ore e 8 minuti fa, alle 23:00 UTC
Previsione valida dal 25 alle 00 UTC al 25 alle 24 UTC
Vento 2 kt da direzioni variabili
Visibilità: 5000 m
Poco nuvoloso ad un'altezza di 2000 ft
Probabilità 40% :
Temporaneamente
dal 25 alle 00 UTC al 25 alle 07 UTC
Visibilità: 2000 m
foschia

TAF: DTTA 242300Z 2500/2524 VRB02KT 5000 FEW020 PROB40 TEMPO 2500/2507 2000 BR

Osservazioni e previsioni meteorologiche di più di 4000 aeroporti (messaggi METAR e TAF).

Le stazioni disponibili sono rappresentate dai dischi gialli e rossi sulla carta.

Puntare il mouse per vedere il nome della stazione.

Clicca sopra per visualizzare le osservazioni e previsioni meteorologiche.

Per cambiare la mappa : fare clic sui pulsanti verdi con una croce nera per ingrandire, il pulsante verde con un trattino per diminuire, o sulla freccia verde per le mappe adiacenti.


METAR-TAF: